Time;durP1;ratioP1;P1;durP2;ratioP2;P2;SDS_P1;SDS_P2;PMS_P1;PMS_P2;Temp;Humidity;BMP_temperature;BMP_pressure;BME280_temperature;BME280_humidity;BME280_pressure;Samples;Min_cycle;Max_cycle;Signal;HPM_P1;HPM_P2
2022/10/03 00:00:00;;;;;;;;;;;9.30;99.90;;;;;;5102990;28;19932;-89
2022/10/03 00:02:30;;;;;;;;;;;9.40;99.90;;;;;;5131085;27;19928;-89
2022/10/03 00:05:05;;;;;;;;;;;9.40;99.90;;;;;;5111769;28;20018;-90
2022/10/03 00:07:46;;;;;;;;;;;9.50;99.90;;;;;;5109676;28;19931;-89
2022/10/03 00:10:14;;;;;;;;;;;9.50;99.90;;;;;;5100814;28;19924;-90
2022/10/03 00:12:47;;;;;;;;;;;9.60;99.90;;;;;;5097225;28;19924;-88
2022/10/03 00:15:24;;;;;;;;;;;9.60;99.90;;;;;;5098923;28;19976;-89
2022/10/03 00:18:15;;;;;;;;;;;9.60;99.90;;;;;;5121196;27;20010;-89
2022/10/03 00:21:00;;;;;;;;;;;9.70;99.90;;;;;;5129680;27;19959;-88
2022/10/03 00:23:26;;;;;;;;;;;9.70;99.90;;;;;;5103018;28;19924;-89
2022/10/03 00:26:25;;;;;;;;;;;9.70;99.90;;;;;;5119493;28;19985;-88
2022/10/03 00:28:57;;;;;;;;;;;9.70;99.90;;;;;;5118292;28;19924;-89
2022/10/03 00:31:41;;;;;;;;;;;9.70;99.90;;;;;;5115426;28;20372;-89
2022/10/03 00:34:07;;;;;;;;;;;9.80;99.90;;;;;;5097433;28;19924;-89
2022/10/03 00:36:43;;;;;;;;;;;9.80;99.90;;;;;;5135351;27;19930;-89
2022/10/03 00:39:20;;;;;;;;;;;9.80;99.90;;;;;;5102920;28;20011;-90
2022/10/03 00:41:59;;;;;;;;;;;9.90;99.90;;;;;;5117286;28;20636;-89
2022/10/03 00:45:00;;;;;;;;;;;9.90;99.90;;;;;;5101856;28;19933;-89
2022/10/03 00:47:26;;;;;;;;;;;9.90;99.90;;;;;;5041645;28;19929;-89
2022/10/03 00:49:58;;;;;;;;;;;10.00;99.90;;;;;;5112344;28;19942;-89
2022/10/03 00:52:27;;;;;;;;;;;10.00;99.90;;;;;;5111120;28;19931;-89
2022/10/03 00:55:02;;;;;;;;;;;10.00;99.90;;;;;;5126655;28;19923;-88
2022/10/03 00:57:49;;;;;;;;;;;10.10;99.90;;;;;;5126415;27;19979;-89
2022/10/03 01:00:15;;;;;;;;;;;10.10;99.90;;;;;;5116966;28;19932;-89
2022/10/03 01:02:59;;;;;;;;;;;10.10;99.90;;;;;;5118181;28;19924;-89
2022/10/03 01:05:44;;;;;;;;;;;10.20;99.90;;;;;;5144492;27;19924;-89
2022/10/03 01:08:36;;;;;;;;;;;10.20;99.90;;;;;;5095599;28;19931;-89
2022/10/03 01:11:20;;;;;;;;;;;10.20;99.90;;;;;;5097950;28;19923;-89
2022/10/03 01:14:04;;;;;;;;;;;10.30;99.90;;;;;;5075195;28;19925;-89
2022/10/03 01:16:49;;;;;;;;;;;10.30;99.90;;;;;;5073629;28;19925;-88
2022/10/03 01:19:33;;;;;;;;;;;10.30;99.90;;;;;;5110835;28;19932;-88
2022/10/03 01:22:02;;;;;;;;;;;10.30;99.90;;;;;;5061555;28;20004;-89
2022/10/03 01:24:40;;;;;;;;;;;10.30;99.90;;;;;;5053427;28;19932;-88
2022/10/03 01:27:06;;;;;;;;;;;10.40;99.90;;;;;;5102351;28;19925;-88
2022/10/03 01:32:28;;;;;;;;;;;10.40;99.90;;;;;;5104562;28;19940;-88
2022/10/03 01:35:18;;;;;;;;;;;10.40;99.90;;;;;;5060361;28;19935;-89
2022/10/03 01:38:09;;;;;;;;;;;10.40;99.90;;;;;;5021199;28;19964;-89
2022/10/03 01:40:35;;;;;;;;;;;10.40;99.90;;;;;;5070564;28;19963;-89
2022/10/03 01:43:05;;;;;;;;;;;10.30;99.90;;;;;;5087586;28;19975;-88
2022/10/03 01:45:50;;;;;;;;;;;10.30;99.90;;;;;;5089642;28;19935;-90
2022/10/03 01:48:36;;;;;;;;;;;10.30;99.90;;;;;;5060255;28;19925;-88
2022/10/03 01:51:20;;;;;;;;;;;10.30;99.90;;;;;;5047735;28;20327;-90
2022/10/03 01:54:06;;;;;;;;;;;10.20;99.90;;;;;;5063347;28;20354;-88
2022/10/03 01:56:31;;;;;;;;;;;10.20;99.90;;;;;;5105360;28;19925;-88
2022/10/03 01:59:01;;;;;;;;;;;10.10;99.90;;;;;;5084717;28;19950;-87
2022/10/03 02:02:02;;;;;;;;;;;10.10;99.90;;;;;;5075477;28;19921;-88
2022/10/03 02:04:36;;;;;;;;;;;10.00;99.90;;;;;;5044799;28;19928;-88
2022/10/03 02:07:19;;;;;;;;;;;9.90;99.90;;;;;;5055776;28;19924;-88
2022/10/03 02:09:51;;;;;;;;;;;9.90;99.90;;;;;;5091910;28;19959;-88
2022/10/03 02:12:33;;;;;;;;;;;9.90;99.90;;;;;;5068872;28;20383;-87
2022/10/03 02:15:16;;;;;;;;;;;9.90;99.90;;;;;;5090221;28;20342;-88
2022/10/03 02:17:41;;;;;;;;;;;9.90;99.90;;;;;;5107298;28;19979;-88
2022/10/03 02:20:22;;;;;;;;;;;10.00;99.90;;;;;;5118970;28;19930;-88
2022/10/03 02:22:50;;;;;;;;;;;10.00;99.90;;;;;;5100942;28;19953;-88
2022/10/03 02:25:19;;;;;;;;;;;9.90;99.90;;;;;;5099898;28;19932;-89
2022/10/03 02:28:03;;;;;;;;;;;9.90;99.90;;;;;;5108158;28;19924;-88
2022/10/03 02:30:52;;;;;;;;;;;9.90;99.90;;;;;;5122913;28;19924;-88
2022/10/03 02:33:42;;;;;;;;;;;9.90;99.90;;;;;;5153235;27;19935;-88
2022/10/03 02:36:11;;;;;;;;;;;9.90;99.90;;;;;;5097925;28;19995;-87
2022/10/03 02:38:52;;;;;;;;;;;9.90;99.90;;;;;;5115516;28;19928;-88
2022/10/03 02:41:17;;;;;;;;;;;9.90;99.90;;;;;;5104854;28;19979;-88
2022/10/03 02:44:02;;;;;;;;;;;9.90;99.90;;;;;;5134102;28;19931;-88
2022/10/03 02:46:45;;;;;;;;;;;10.00;99.90;;;;;;5104630;28;19974;-88
2022/10/03 02:49:10;;;;;;;;;;;10.00;99.90;;;;;;5120110;28;20328;-89
2022/10/03 02:51:49;;;;;;;;;;;10.00;99.90;;;;;;5121223;28;19974;-88
2022/10/03 02:54:33;;;;;;;;;;;10.10;99.90;;;;;;5121730;28;19931;-89
2022/10/03 02:57:18;;;;;;;;;;;10.10;99.90;;;;;;5129452;27;19963;-88
2022/10/03 02:59:43;;;;;;;;;;;10.10;99.90;;;;;;5103480;28;19961;-89
2022/10/03 03:02:31;;;;;;;;;;;10.10;99.90;;;;;;5116987;28;19969;-88
2022/10/03 03:05:15;;;;;;;;;;;10.10;99.90;;;;;;5116586;28;19932;-87
2022/10/03 03:08:01;;;;;;;;;;;10.10;99.90;;;;;;5104362;27;19935;-88
2022/10/03 03:10:45;;;;;;;;;;;10.20;99.90;;;;;;5133671;27;19970;-87
2022/10/03 03:13:14;;;;;;;;;;;10.20;99.90;;;;;;5105601;28;19931;-87
2022/10/03 03:15:43;;;;;;;;;;;10.30;99.90;;;;;;5128797;27;20428;-88
2022/10/03 03:18:10;;;;;;;;;;;10.30;99.90;;;;;;5131977;27;19924;-88
2022/10/03 03:20:58;;;;;;;;;;;10.40;99.90;;;;;;5120112;28;19923;-88
2022/10/03 03:23:43;;;;;;;;;;;10.40;99.90;;;;;;5096988;28;19924;-89
2022/10/03 03:26:20;;;;;;;;;;;10.40;99.90;;;;;;5127729;27;19923;-89
2022/10/03 03:29:00;;;;;;;;;;;10.50;99.90;;;;;;5096686;28;19927;-89
2022/10/03 03:31:43;;;;;;;;;;;10.50;99.90;;;;;;5111440;28;19935;-89
2022/10/03 03:34:14;;;;;;;;;;;10.50;99.90;;;;;;5115714;28;19949;-89
2022/10/03 03:36:50;;;;;;;;;;;10.50;99.90;;;;;;5128041;27;19924;-88
2022/10/03 03:39:22;;;;;;;;;;;10.60;99.90;;;;;;5152918;27;19923;-88
2022/10/03 03:41:54;;;;;;;;;;;10.60;99.90;;;;;;5102583;28;19923;-89
2022/10/03 03:44:25;;;;;;;;;;;10.60;99.90;;;;;;5117693;28;20394;-88
2022/10/03 03:47:10;;;;;;;;;;;10.60;99.90;;;;;;5115453;28;19932;-89
2022/10/03 03:49:56;;;;;;;;;;;10.60;99.90;;;;;;5105310;28;19931;-88
2022/10/03 03:52:41;;;;;;;;;;;10.60;99.90;;;;;;5133238;27;19931;-89
2022/10/03 03:55:06;;;;;;;;;;;10.60;99.90;;;;;;5122594;27;19927;-88
2022/10/03 03:57:52;;;;;;;;;;;10.60;99.90;;;;;;5097681;28;20028;-89
2022/10/03 04:00:37;;;;;;;;;;;10.60;99.90;;;;;;5110685;28;19927;-88
2022/10/03 04:03:20;;;;;;;;;;;10.60;99.90;;;;;;5091238;28;19951;-89
2022/10/03 04:05:46;;;;;;;;;;;10.50;99.90;;;;;;5103098;28;19923;-90
2022/10/03 04:08:20;;;;;;;;;;;10.50;99.90;;;;;;5113683;28;19995;-88
2022/10/03 04:10:52;;;;;;;;;;;10.50;99.90;;;;;;5113562;28;19935;-88
2022/10/03 04:13:24;;;;;;;;;;;10.50;99.90;;;;;;5100648;28;19932;-89
2022/10/03 04:16:05;;;;;;;;;;;10.50;99.90;;;;;;5124565;28;19997;-88
2022/10/03 04:18:58;;;;;;;;;;;10.50;99.90;;;;;;5163029;27;19919;-89
2022/10/03 04:21:42;;;;;;;;;;;10.60;99.90;;;;;;5115422;28;19924;-88
2022/10/03 04:24:26;;;;;;;;;;;10.40;99.90;;;;;;5128790;27;19931;-88
2022/10/03 04:27:01;;;;;;;;;;;10.60;99.90;;;;;;5115213;28;19976;-89
2022/10/03 04:29:27;;;;;;;;;;;10.60;99.90;;;;;;5151250;27;19934;-88
2022/10/03 04:31:56;;;;;;;;;;;10.60;99.90;;;;;;5118362;28;19985;-89
2022/10/03 04:34:22;;;;;;;;;;;10.60;99.90;;;;;;5126675;27;19923;-89
2022/10/03 04:36:53;;;;;;;;;;;10.60;99.90;;;;;;5119523;28;19998;-89
2022/10/03 04:39:25;;;;;;;;;;;10.50;99.90;;;;;;5119523;28;19979;-89
2022/10/03 04:41:58;;;;;;;;;;;10.50;99.90;;;;;;5107927;28;19924;-89
2022/10/03 04:44:43;;;;;;;;;;;10.50;99.90;;;;;;5097200;28;19924;-88
2022/10/03 04:47:30;;;;;;;;;;;10.40;99.90;;;;;;5117221;28;19924;-88
2022/10/03 04:50:02;;;;;;;;;;;10.40;99.90;;;;;;5131073;27;19928;-88
2022/10/03 04:52:46;;;;;;;;;;;10.30;99.90;;;;;;5116855;28;19935;-89
2022/10/03 04:55:22;;;;;;;;;;;10.30;99.90;;;;;;5129779;27;19950;-89
2022/10/03 04:57:59;;;;;;;;;;;10.30;99.90;;;;;;5123087;27;20359;-88
2022/10/03 05:00:27;;;;;;;;;;;10.30;99.90;;;;;;5095908;28;19950;-88
2022/10/03 05:02:56;;;;;;;;;;;10.20;99.90;;;;;;5097130;28;19928;-89
2022/10/03 05:05:31;;;;;;;;;;;10.20;99.90;;;;;;5092138;28;19928;-89
2022/10/03 05:08:21;;;;;;;;;;;10.10;99.90;;;;;;5093619;28;19949;-89
2022/10/03 05:10:50;;;;;;;;;;;10.00;99.90;;;;;;5129755;27;19962;-89
2022/10/03 05:13:18;;;;;;;;;;;9.90;99.90;;;;;;5095563;28;19981;-89
2022/10/03 05:15:44;;;;;;;;;;;9.80;99.90;;;;;;5117931;28;19934;-89
2022/10/03 05:18:15;;;;;;;;;;;9.80;99.90;;;;;;5102084;28;19924;-88
2022/10/03 05:20:44;;;;;;;;;;;9.70;99.90;;;;;;5135834;27;19923;-88
2022/10/03 05:23:30;;;;;;;;;;;9.70;99.90;;;;;;5118591;28;19985;-88
2022/10/03 05:26:16;;;;;;;;;;;9.60;99.90;;;;;;5109769;28;19979;-87
2022/10/03 05:29:06;;;;;;;;;;;9.50;99.90;;;;;;5100255;28;20097;-88
2022/10/03 05:32:08;;;;;;;;;;;9.50;99.90;;;;;;5097440;28;19928;-88
2022/10/03 05:34:52;;;;;;;;;;;9.40;99.90;;;;;;5063677;28;20275;-88
2022/10/03 05:37:27;;;;;;;;;;;9.40;99.90;;;;;;5127269;28;19928;-89
2022/10/03 05:39:59;;;;;;;;;;;9.40;99.90;;;;;;5119159;28;19924;-88
2022/10/03 05:42:35;;;;;;;;;;;9.30;99.90;;;;;;5129726;27;19924;-89
2022/10/03 05:45:01;;;;;;;;;;;9.30;99.90;;;;;;5119084;28;20302;-88
2022/10/03 05:47:43;;;;;;;;;;;9.20;99.90;;;;;;5125184;28;20402;-89
2022/10/03 05:50:42;;;;;;;;;;;9.20;99.90;;;;;;5131993;28;19924;-88
2022/10/03 05:53:26;;;;;;;;;;;9.20;99.90;;;;;;5091035;28;19935;-88
2022/10/03 05:56:16;;;;;;;;;;;9.10;99.90;;;;;;5141316;28;19935;-88
2022/10/03 05:58:47;;;;;;;;;;;9.10;99.90;;;;;;5119258;28;19931;-89
2022/10/03 06:01:33;;;;;;;;;;;9.10;99.90;;;;;;5110162;28;19924;-87
2022/10/03 06:04:18;;;;;;;;;;;9.00;99.90;;;;;;5151169;27;20364;-88
2022/10/03 06:06:47;;;;;;;;;;;9.00;99.90;;;;;;5118153;28;20443;-89
2022/10/03 06:09:31;;;;;;;;;;;9.00;99.90;;;;;;5094449;28;19931;-88
2022/10/03 06:12:00;;;;;;;;;;;8.90;99.90;;;;;;5131232;28;19939;-89
2022/10/03 06:14:33;;;;;;;;;;;8.90;99.90;;;;;;5099746;28;20394;-88
2022/10/03 06:17:11;;;;;;;;;;;8.80;99.90;;;;;;5115700;28;19945;-89
2022/10/03 06:19:46;;;;;;;;;;;8.80;99.90;;;;;;5115657;28;19928;-88
2022/10/03 06:22:18;;;;;;;;;;;8.90;99.90;;;;;;5135008;27;19923;-87
2022/10/03 06:25:02;;;;;;;;;;;8.90;99.90;;;;;;5142332;27;19924;-88
2022/10/03 06:27:30;;;;;;;;;;;8.90;99.90;;;;;;5126921;27;19927;-89
2022/10/03 06:30:10;;;;;;;;;;;8.90;99.90;;;;;;5151288;27;19928;-87
2022/10/03 06:32:36;;;;;;;;;;;8.90;99.90;;;;;;5119668;28;19995;-86
2022/10/03 06:35:02;;;;;;;;;;;8.90;99.90;;;;;;5116794;28;19931;-86
2022/10/03 06:37:46;;;;;;;;;;;9.00;99.90;;;;;;5109119;28;20261;-85
2022/10/03 06:40:30;;;;;;;;;;;9.00;99.90;;;;;;5153174;27;19932;-85
2022/10/03 06:43:17;;;;;;;;;;;9.10;99.90;;;;;;5148509;27;19931;-86
2022/10/03 06:45:51;;;;;;;;;;;9.10;99.90;;;;;;5100916;28;20001;-85
2022/10/03 06:48:20;;;;;;;;;;;9.20;99.90;;;;;;5124996;27;19930;-86
2022/10/03 06:50:58;;;;;;;;;;;9.20;99.90;;;;;;5113393;28;19928;-87
2022/10/03 06:53:24;;;;;;;;;;;9.30;99.90;;;;;;5117491;28;19963;-86
2022/10/03 06:56:13;;;;;;;;;;;9.30;99.90;;;;;;5094160;28;19931;-86
2022/10/03 06:58:39;;;;;;;;;;;9.40;99.90;;;;;;5134200;27;19924;-86
2022/10/03 07:01:11;;;;;;;;;;;9.40;99.90;;;;;;5099747;28;19931;-87
2022/10/03 07:03:36;;;;;;;;;;;9.40;99.90;;;;;;5128331;27;20005;-86
2022/10/03 07:06:05;;;;;;;;;;;9.50;99.90;;;;;;5142825;27;20015;-87
2022/10/03 07:08:52;;;;;;;;;;;9.50;99.90;;;;;;5134136;27;19987;-86
2022/10/03 07:11:37;;;;;;;;;;;9.60;99.90;;;;;;5106677;28;20299;-86
2022/10/03 07:14:24;;;;;;;;;;;9.70;99.90;;;;;;5120046;28;19924;-86
2022/10/03 07:17:08;;;;;;;;;;;9.80;99.90;;;;;;5066628;28;19955;-86
2022/10/03 07:20:01;;;;;;;;;;;9.90;99.90;;;;;;5115033;28;19924;-86
2022/10/03 07:22:47;;;;;;;;;;;10.00;99.90;;;;;;5136216;27;19924;-86
2022/10/03 07:25:18;;;;;;;;;;;10.10;99.90;;;;;;5118785;28;19923;-87
2022/10/03 07:27:53;;;;;;;;;;;10.10;99.90;;;;;;5119130;28;19924;-90
2022/10/03 07:30:23;;;;;;;;;;;10.20;99.90;;;;;;5116306;28;19927;-89
2022/10/03 07:32:51;;;;;;;;;;;10.30;99.90;;;;;;5101017;28;19967;-89
2022/10/03 07:38:56;;;;;;;;;;;10.40;99.90;;;;;;5115235;28;19938;-89
2022/10/03 07:41:18;;;;;;;;;;;10.60;99.90;;;;;;5116773;28;19927;-90
2022/10/03 07:44:02;;;;;;;;;;;10.70;99.90;;;;;;5113159;28;20025;-90
2022/10/03 07:46:47;;;;;;;;;;;10.80;99.90;;;;;;5147307;27;19924;-89
2022/10/03 07:49:27;;;;;;;;;;;10.90;99.90;;;;;;5136157;27;19931;-89
2022/10/03 07:51:52;;;;;;;;;;;10.90;99.90;;;;;;5144667;27;19931;-89
2022/10/03 07:54:25;;;;;;;;;;;11.00;99.90;;;;;;5127224;27;20006;-89
2022/10/03 07:56:54;;;;;;;;;;;11.10;99.90;;;;;;5094919;28;19924;-90
2022/10/03 07:59:39;;;;;;;;;;;11.10;99.90;;;;;;5102733;28;20022;-89
2022/10/03 08:02:14;;;;;;;;;;;11.30;99.90;;;;;;5132501;27;19923;-89
2022/10/03 08:04:45;;;;;;;;;;;11.40;99.90;;;;;;5126054;27;19986;-89
2022/10/03 08:07:31;;;;;;;;;;;11.50;99.90;;;;;;5123002;27;19978;-89
2022/10/03 08:09:56;;;;;;;;;;;11.60;99.90;;;;;;5097603;28;20516;-90
2022/10/03 08:12:25;;;;;;;;;;;11.70;99.90;;;;;;5098019;28;19924;-88
2022/10/03 08:15:04;;;;;;;;;;;11.70;99.90;;;;;;5129275;27;20338;-89
2022/10/03 08:17:49;;;;;;;;;;;11.90;99.90;;;;;;5115532;28;19935;-89
2022/10/03 08:20:33;;;;;;;;;;;11.90;99.90;;;;;;5124564;27;19931;-86
2022/10/03 08:23:02;;;;;;;;;;;12.00;99.90;;;;;;5133892;27;20451;-86
2022/10/03 08:25:27;;;;;;;;;;;12.20;99.90;;;;;;5137645;27;19924;-86
2022/10/03 08:28:08;;;;;;;;;;;12.20;99.90;;;;;;5146290;27;19931;-87
2022/10/03 08:30:46;;;;;;;;;;;12.30;99.90;;;;;;5135613;27;20014;-86
2022/10/03 08:33:24;;;;;;;;;;;12.40;99.90;;;;;;5119100;28;19928;-85
2022/10/03 08:36:08;;;;;;;;;;;12.50;99.90;;;;;;5151721;27;19936;-84
2022/10/03 08:38:35;;;;;;;;;;;12.60;99.90;;;;;;5116449;28;20292;-90
2022/10/03 08:41:04;;;;;;;;;;;12.70;99.90;;;;;;5119513;28;20398;-90
2022/10/03 08:43:29;;;;;;;;;;;12.80;99.90;;;;;;5124464;27;20066;-89
2022/10/03 08:46:04;;;;;;;;;;;12.90;99.90;;;;;;5117270;28;19928;-88
2022/10/03 08:48:48;;;;;;;;;;;12.90;99.90;;;;;;5110454;28;19919;-89
2022/10/03 08:51:26;;;;;;;;;;;12.90;99.90;;;;;;5130454;28;19951;-89
2022/10/03 08:53:52;;;;;;;;;;;13.10;99.90;;;;;;5116979;28;19988;-88
2022/10/03 08:56:18;;;;;;;;;;;13.20;99.90;;;;;;5112869;28;19928;-89
2022/10/03 08:59:02;;;;;;;;;;;13.30;99.90;;;;;;5110337;28;19964;-89
2022/10/03 09:01:34;;;;;;;;;;;13.30;99.90;;;;;;5124054;27;19930;-89
2022/10/03 09:04:19;;;;;;;;;;;13.30;99.90;;;;;;5118381;28;19932;-88
2022/10/03 09:06:55;;;;;;;;;;;13.40;99.90;;;;;;5118991;28;19924;-91
2022/10/03 09:09:40;;;;;;;;;;;13.50;99.90;;;;;;5130698;27;19931;-90
2022/10/03 09:12:17;;;;;;;;;;;13.60;99.90;;;;;;5115772;28;20387;-89
2022/10/03 09:14:45;;;;;;;;;;;13.60;99.90;;;;;;5112729;28;21428;-91
2022/10/03 09:17:10;;;;;;;;;;;13.70;99.90;;;;;;5122702;27;19924;-89
2022/10/03 09:19:55;;;;;;;;;;;13.80;99.90;;;;;;5124619;27;20303;-90
2022/10/03 09:22:53;;;;;;;;;;;13.90;99.90;;;;;;5094566;28;19924;-89
2022/10/03 09:25:38;;;;;;;;;;;14.00;99.90;;;;;;5084692;28;19924;-86
2022/10/03 09:28:07;;;;;;;;;;;14.00;99.90;;;;;;5112338;28;19947;-87
2022/10/03 09:30:36;;;;;;;;;;;14.10;99.90;;;;;;5129301;27;19928;-87
2022/10/03 09:33:04;;;;;;;;;;;14.10;99.90;;;;;;5131809;27;20523;-85
2022/10/03 09:35:33;;;;;;;;;;;14.20;99.90;;;;;;5144097;27;19930;-86
2022/10/03 09:37:58;;;;;;;;;;;14.20;99.90;;;;;;5114889;28;19924;-86
2022/10/03 09:40:43;;;;;;;;;;;14.30;99.90;;;;;;5127477;27;20410;-86
2022/10/03 09:43:27;;;;;;;;;;;14.30;99.90;;;;;;5126786;28;19930;-86
2022/10/03 09:46:04;;;;;;;;;;;14.40;99.90;;;;;;5133067;28;19950;-86
2022/10/03 09:48:31;;;;;;;;;;;14.50;99.90;;;;;;5115688;28;19923;-87
2022/10/03 09:51:00;;;;;;;;;;;14.60;99.90;;;;;;5119119;27;19928;-86
2022/10/03 09:53:45;;;;;;;;;;;14.70;99.90;;;;;;5145742;27;19931;-87
2022/10/03 09:56:23;;;;;;;;;;;14.80;99.90;;;;;;5115652;27;19924;-87
2022/10/03 09:58:55;;;;;;;;;;;14.80;99.90;;;;;;5119195;28;19930;-87
2022/10/03 10:01:27;;;;;;;;;;;14.80;99.90;;;;;;5099122;28;19995;-87
2022/10/03 10:03:52;;;;;;;;;;;14.90;99.90;;;;;;5131755;27;19924;-87
2022/10/03 10:06:18;;;;;;;;;;;15.00;99.90;;;;;;5133832;27;20339;-86
2022/10/03 10:09:02;;;;;;;;;;;15.00;99.90;;;;;;5102726;28;19995;-86
2022/10/03 10:11:34;;;;;;;;;;;15.10;99.90;;;;;;5131497;27;20343;-89
2022/10/03 10:14:06;;;;;;;;;;;15.20;99.90;;;;;;5137065;27;19930;-88
2022/10/03 10:16:44;;;;;;;;;;;15.30;99.90;;;;;;5100092;28;19924;-90
2022/10/03 10:19:16;;;;;;;;;;;15.30;99.90;;;;;;5138965;27;19930;-90
2022/10/03 10:22:00;;;;;;;;;;;15.40;99.90;;;;;;5147050;27;19928;-92
2022/10/03 10:24:45;;;;;;;;;;;15.40;99.90;;;;;;5119011;28;19935;-89
2022/10/03 10:27:30;;;;;;;;;;;15.50;99.90;;;;;;5090470;28;19930;-91
2022/10/03 10:29:58;;;;;;;;;;;15.60;99.90;;;;;;5119435;28;19995;-90
2022/10/03 10:32:27;;;;;;;;;;;15.70;99.90;;;;;;5109654;28;19959;-91
2022/10/03 10:35:05;;;;;;;;;;;15.70;99.90;;;;;;5126143;27;19955;-91
2022/10/03 10:38:03;;;;;;;;;;;15.80;99.90;;;;;;5147559;27;19924;-91
2022/10/03 10:40:32;;;;;;;;;;;15.90;99.90;;;;;;5106752;28;19947;-92
2022/10/03 10:43:16;;;;;;;;;;;15.90;99.90;;;;;;5129909;27;19935;-90
2022/10/03 10:46:03;;;;;;;;;;;15.90;99.90;;;;;;5112694;28;20404;-90
2022/10/03 10:48:47;;;;;;;;;;;15.90;99.90;;;;;;5119159;28;20042;-91
2022/10/03 10:51:16;;;;;;;;;;;15.90;99.90;;;;;;5140447;27;19975;-93
2022/10/03 10:53:54;;;;;;;;;;;16.00;99.90;;;;;;5096963;28;19951;-90
2022/10/03 10:56:41;;;;;;;;;;;16.00;99.90;;;;;;5128219;27;19924;-89
2022/10/03 10:59:32;;;;;;;;;;;16.00;99.90;;;;;;5124804;27;19932;-89
2022/10/03 11:02:04;;;;;;;;;;;16.10;99.90;;;;;;5102661;28;19967;-89
2022/10/03 11:04:41;;;;;;;;;;;16.10;99.90;;;;;;5137195;27;19931;-90
2022/10/03 11:07:15;;;;;;;;;;;16.20;99.90;;;;;;5122418;28;19928;-89
2022/10/03 11:09:59;;;;;;;;;;;16.20;99.90;;;;;;5099870;28;19924;-90
2022/10/03 11:12:44;;;;;;;;;;;16.30;99.90;;;;;;5118540;28;19924;-96
2022/10/03 11:15:28;;;;;;;;;;;16.30;99.90;;;;;;5104848;28;19935;-91
2022/10/03 11:18:06;;;;;;;;;;;16.40;99.90;;;;;;5099267;28;19996;-91
2022/10/03 11:20:53;;;;;;;;;;;16.40;99.90;;;;;;5143955;27;19931;-91
2022/10/03 11:23:28;;;;;;;;;;;16.40;99.90;;;;;;5104636;28;19924;-92
2022/10/03 11:26:05;;;;;;;;;;;16.30;99.90;;;;;;5090059;28;19975;-92
2022/10/03 11:28:37;;;;;;;;;;;16.20;99.90;;;;;;5113134;28;20367;-92
2022/10/03 11:31:09;;;;;;;;;;;16.20;99.90;;;;;;5114450;28;19924;-90
2022/10/03 11:33:40;;;;;;;;;;;16.20;99.90;;;;;;5135845;27;19931;-90
2022/10/03 11:36:13;;;;;;;;;;;16.30;99.90;;;;;;5136442;27;20058;-89
2022/10/03 11:38:42;;;;;;;;;;;16.30;99.90;;;;;;5092504;28;19946;-87
2022/10/03 11:41:17;;;;;;;;;;;16.30;99.90;;;;;;5095369;28;19928;-88
2022/10/03 11:43:42;;;;;;;;;;;16.30;99.90;;;;;;5132723;27;19986;-88
2022/10/03 11:46:29;;;;;;;;;;;16.40;99.90;;;;;;5118702;28;19934;-88
2022/10/03 11:49:00;;;;;;;;;;;16.50;99.90;;;;;;5072642;28;19924;-89
2022/10/03 11:51:26;;;;;;;;;;;16.70;99.90;;;;;;5130620;27;19933;-89
2022/10/03 11:54:03;;;;;;;;;;;16.80;99.90;;;;;;5135048;27;19979;-88
2022/10/03 11:56:32;;;;;;;;;;;16.90;99.90;;;;;;5094331;28;19924;-88
2022/10/03 11:59:17;;;;;;;;;;;16.90;99.90;;;;;;5131852;27;19934;-87
2022/10/03 12:02:03;;;;;;;;;;;17.00;99.90;;;;;;5100833;28;20004;-87
2022/10/03 12:04:48;;;;;;;;;;;17.10;99.90;;;;;;5071489;28;19924;-87
2022/10/03 12:10:10;;;;;;;;;;;17.40;99.90;;;;;;5131895;28;19930;-87
2022/10/03 12:12:38;;;;;;;;;;;17.50;99.90;;;;;;5142474;27;19978;-87
2022/10/03 12:15:23;;;;;;;;;;;17.70;99.90;;;;;;5100476;28;20011;-87
2022/10/03 12:18:07;;;;;;;;;;;17.80;99.90;;;;;;5097172;28;19946;-87
2022/10/03 12:20:52;;;;;;;;;;;17.80;99.90;;;;;;5130213;27;19927;-87
2022/10/03 12:23:31;;;;;;;;;;;17.90;99.90;;;;;;5102246;28;19932;-88
2022/10/03 12:26:01;;;;;;;;;;;17.80;99.90;;;;;;5099212;28;19927;-89
2022/10/03 12:28:40;;;;;;;;;;;17.60;99.90;;;;;;5100947;28;19928;-89
2022/10/03 12:31:06;;;;;;;;;;;17.60;99.90;;;;;;5117962;28;19934;-87
2022/10/03 12:33:34;;;;;;;;;;;17.50;99.90;;;;;;5135547;27;19923;-86
2022/10/03 12:36:14;;;;;;;;;;;17.50;99.90;;;;;;5100463;28;19949;-87
2022/10/03 12:38:46;;;;;;;;;;;17.50;99.90;;;;;;5123310;27;20470;-88
2022/10/03 12:41:11;;;;;;;;;;;17.60;99.90;;;;;;5130782;27;20010;-87
2022/10/03 12:43:47;;;;;;;;;;;17.50;99.90;;;;;;5101701;28;19931;-86
2022/10/03 12:46:39;;;;;;;;;;;17.50;99.90;;;;;;5116586;28;19963;-87
2022/10/03 12:49:28;;;;;;;;;;;17.50;99.90;;;;;;5068565;28;20066;-87
2022/10/03 12:51:58;;;;;;;;;;;17.50;99.90;;;;;;5096047;28;19931;-87
2022/10/03 12:54:33;;;;;;;;;;;17.60;99.90;;;;;;5126227;27;20371;-87
2022/10/03 12:57:08;;;;;;;;;;;17.60;99.90;;;;;;5131919;27;19927;-87
2022/10/03 12:59:44;;;;;;;;;;;17.60;99.90;;;;;;5114569;28;19943;-87
2022/10/03 13:02:28;;;;;;;;;;;17.60;99.90;;;;;;5126041;27;19928;-87
2022/10/03 13:05:00;;;;;;;;;;;17.60;99.90;;;;;;5095304;28;19963;-87
2022/10/03 13:07:32;;;;;;;;;;;17.40;99.90;;;;;;5128483;27;19946;-86
2022/10/03 13:10:07;;;;;;;;;;;17.40;99.90;;;;;;5099293;28;19932;-87
2022/10/03 13:12:39;;;;;;;;;;;17.30;99.90;;;;;;5090861;28;19924;-86
2022/10/03 13:15:17;;;;;;;;;;;17.30;99.90;;;;;;5127035;27;20355;-87
2022/10/03 13:17:46;;;;;;;;;;;17.30;99.90;;;;;;5135885;27;19991;-87
2022/10/03 13:20:21;;;;;;;;;;;17.40;99.90;;;;;;5111210;28;19931;-87
2022/10/03 13:23:06;;;;;;;;;;;17.40;99.90;;;;;;5116750;28;19934;-87
2022/10/03 13:25:32;;;;;;;;;;;17.60;99.90;;;;;;5123305;28;19954;-88
2022/10/03 13:28:17;;;;;;;;;;;17.50;99.90;;;;;;5097412;28;19927;-86
2022/10/03 13:30:43;;;;;;;;;;;17.50;99.90;;;;;;5108445;28;19939;-87
2022/10/03 13:33:16;;;;;;;;;;;17.50;99.90;;;;;;5125174;28;19924;-87
2022/10/03 13:36:04;;;;;;;;;;;17.40;99.90;;;;;;5134225;27;19924;-88
2022/10/03 13:38:45;;;;;;;;;;;17.30;99.90;;;;;;5127738;28;20006;-87
2022/10/03 13:41:11;;;;;;;;;;;17.30;99.90;;;;;;5098862;28;19928;-87
2022/10/03 13:43:39;;;;;;;;;;;17.30;99.90;;;;;;5125774;28;19924;-87
2022/10/03 13:46:25;;;;;;;;;;;17.30;99.90;;;;;;5116384;28;19924;-87
2022/10/03 13:49:17;;;;;;;;;;;17.40;99.90;;;;;;5083697;28;19924;-86
2022/10/03 13:52:14;;;;;;;;;;;17.50;99.90;;;;;;5109431;28;19927;-87
2022/10/03 13:55:00;;;;;;;;;;;17.40;99.90;;;;;;5051409;28;20060;-87
2022/10/03 13:57:38;;;;;;;;;;;17.40;99.90;;;;;;5124662;28;19928;-88
2022/10/03 14:00:12;;;;;;;;;;;17.40;99.90;;;;;;5108261;28;19928;-87
2022/10/03 14:02:40;;;;;;;;;;;17.20;99.90;;;;;;5097191;28;19924;-86
2022/10/03 14:05:18;;;;;;;;;;;17.30;99.90;;;;;;5098354;28;20733;-87
2022/10/03 14:07:56;;;;;;;;;;;17.30;99.90;;;;;;5131691;27;19924;-87
2022/10/03 14:10:31;;;;;;;;;;;17.30;99.90;;;;;;5126631;28;19949;-87
2022/10/03 14:13:18;;;;;;;;;;;17.30;99.90;;;;;;5098285;28;19928;-87
2022/10/03 14:15:50;;;;;;;;;;;17.30;99.90;;;;;;5114777;28;19949;-87
2022/10/03 14:18:25;;;;;;;;;;;17.20;99.90;;;;;;5093468;28;19928;-87
2022/10/03 14:20:55;;;;;;;;;;;17.10;99.90;;;;;;5094503;28;19945;-86
2022/10/03 14:23:27;;;;;;;;;;;16.90;99.90;;;;;;5098662;28;20179;-87
2022/10/03 14:26:00;;;;;;;;;;;16.90;99.90;;;;;;5132927;28;19931;-87
2022/10/03 14:28:45;;;;;;;;;;;16.90;99.90;;;;;;5099958;28;19950;-86
2022/10/03 14:31:33;;;;;;;;;;;16.90;99.90;;;;;;5113827;28;19927;-92
2022/10/03 14:34:18;;;;;;;;;;;16.80;99.90;;;;;;5099751;28;20006;-91
2022/10/03 14:36:51;;;;;;;;;;;16.80;99.90;;;;;;5099732;28;19923;-91
2022/10/03 14:39:27;;;;;;;;;;;16.80;99.90;;;;;;5128752;27;19928;-93
2022/10/03 14:42:14;;;;;;;;;;;16.80;99.90;;;;;;5098676;28;19928;-90
2022/10/03 14:44:51;;;;;;;;;;;16.80;99.90;;;;;;5130287;27;19924;-91
2022/10/03 14:47:24;;;;;;;;;;;16.70;99.90;;;;;;5117555;28;19987;-92
2022/10/03 14:49:54;;;;;;;;;;;17.10;99.90;;;;;;5103029;28;19928;-89
2022/10/03 14:52:20;;;;;;;;;;;17.70;99.90;;;;;;5096412;28;19924;-91
2022/10/03 14:54:49;;;;;;;;;;;16.80;99.90;;;;;;5123163;27;19932;-92
2022/10/03 14:57:34;;;;;;;;;;;16.80;99.90;;;;;;5130545;27;19954;-93
2022/10/03 15:00:01;;;;;;;;;;;16.80;99.90;;;;;;5126536;27;20215;-92
2022/10/03 15:02:26;;;;;;;;;;;16.80;99.90;;;;;;5137773;27;19959;-91
2022/10/03 15:04:55;;;;;;;;;;;16.80;99.90;;;;;;5096411;28;19946;-91
2022/10/03 15:07:33;;;;;;;;;;;16.80;99.90;;;;;;5135471;27;19999;-92
2022/10/03 15:10:00;;;;;;;;;;;16.90;99.90;;;;;;5128073;27;19924;-91
2022/10/03 15:12:30;;;;;;;;;;;16.90;99.90;;;;;;5102735;28;19969;-92
2022/10/03 15:15:10;;;;;;;;;;;16.90;99.90;;;;;;5103607;28;19924;-92
2022/10/03 15:17:42;;;;;;;;;;;17.00;99.90;;;;;;5130068;27;20800;-93
2022/10/03 15:20:09;;;;;;;;;;;17.00;99.90;;;;;;5096728;28;19923;-92
2022/10/03 15:22:38;;;;;;;;;;;17.00;99.90;;;;;;5113547;28;19924;-92
2022/10/03 15:25:04;;;;;;;;;;;17.00;99.90;;;;;;5103808;28;19924;-92